Time;durP1;ratioP1;P1;durP2;ratioP2;P2;SDS_P1;SDS_P2;PMS_P1;PMS_P2;Temp;Humidity;BMP_temperature;BMP_pressure;BME280_temperature;BME280_humidity;BME280_pressure;Samples;Min_cycle;Max_cycle;Signal;HPM_P1;HPM_P2
2023/08/14 00:02:12;;;;;;;7.05;2.35;;;;;;;15.92;100.00;101017.94;4993003;28;20444;-82
2023/08/14 00:04:47;;;;;;;5.03;1.90;;;;;;;15.92;100.00;101023.44;4993450;28;20890;-85
2023/08/14 00:07:20;;;;;;;4.05;2.08;;;;;;;15.78;100.00;101021.50;5001011;28;20432;-86
2023/08/14 00:09:53;;;;;;;4.63;1.90;;;;;;;15.65;100.00;101016.84;4993551;28;20435;-85
2023/08/14 00:12:26;;;;;;;4.90;2.03;;;;;;;15.57;100.00;101009.31;4992888;28;21159;-85
2023/08/14 00:14:54;;;;;;;5.88;2.13;;;;;;;15.59;100.00;101016.13;4994911;28;20427;-85
2023/08/14 00:17:28;;;;;;;5.60;2.00;;;;;;;15.56;100.00;101018.66;5024096;28;20430;-85
2023/08/14 00:19:57;;;;;;;4.65;1.90;;;;;;;15.59;100.00;101015.31;4993650;28;20410;-86
2023/08/14 00:22:30;;;;;;;5.50;1.98;;;;;;;15.55;100.00;101012.38;4998507;28;20425;-85
2023/08/14 00:25:04;;;;;;;7.13;2.00;;;;;;;15.53;100.00;101013.78;4999597;28;20417;-84
2023/08/14 00:27:37;;;;;;;5.13;1.83;;;;;;;15.46;100.00;101012.25;4999865;28;20425;-84
2023/08/14 00:30:07;;;;;;;6.05;2.03;;;;;;;15.47;100.00;100999.38;4999748;28;20424;-85
2023/08/14 00:32:35;;;;;;;7.00;2.20;;;;;;;15.48;100.00;101009.22;5038330;28;20429;-85
2023/08/14 00:35:10;;;;;;;7.73;2.30;;;;;;;15.51;100.00;101005.88;5034300;28;20428;-85
2023/08/14 00:37:45;;;;;;;5.25;2.10;;;;;;;15.52;100.00;101007.47;4999574;28;20410;-84
2023/08/14 00:40:18;;;;;;;7.40;2.27;;;;;;;15.48;100.00;101001.00;5001599;28;20446;-85
2023/08/14 00:42:47;;;;;;;8.98;2.47;;;;;;;15.38;100.00;100999.25;5037219;28;20425;-84
2023/08/14 00:45:20;;;;;;;6.53;2.08;;;;;;;15.32;100.00;100994.19;5034295;28;20429;-84
2023/08/14 00:47:53;;;;;;;8.50;2.20;;;;;;;15.26;100.00;100985.22;5025251;28;20437;-84
2023/08/14 00:50:24;;;;;;;7.30;1.92;;;;;;;15.21;100.00;100991.63;4996767;28;20441;-85
2023/08/14 00:53:00;;;;;;;7.45;2.30;;;;;;;15.12;100.00;100985.22;4995732;28;20430;-84
2023/08/14 00:55:28;;;;;;;5.80;2.45;;;;;;;15.06;100.00;100983.72;5023117;28;20432;-83
2023/08/14 00:58:02;;;;;;;5.18;2.45;;;;;;;15.11;100.00;100986.38;4996569;28;20435;-84
2023/08/14 01:00:36;;;;;;;6.25;2.20;;;;;;;15.22;100.00;100985.03;5012037;28;20442;-84
2023/08/14 01:03:10;;;;;;;6.05;2.42;;;;;;;15.27;100.00;100984.13;5007398;28;20890;-84
2023/08/14 01:05:45;;;;;;;4.88;2.10;;;;;;;15.31;100.00;100993.38;5002767;28;20424;-84
2023/08/14 01:08:13;;;;;;;6.53;2.60;;;;;;;15.30;100.00;100987.09;5030543;28;20435;-85
2023/08/14 01:10:57;;;;;;;5.45;2.20;;;;;;;15.32;100.00;100989.50;4997441;28;20508;-83
2023/08/14 01:13:37;;;;;;;7.80;2.77;;;;;;;15.23;100.00;100986.69;5026220;28;20437;-85
2023/08/14 01:16:10;;;;;;;6.72;2.35;;;;;;;15.18;100.00;100983.19;4996725;28;20422;-85
2023/08/14 01:18:41;;;;;;;5.20;2.17;;;;;;;15.01;100.00;100984.63;4997957;28;20430;-85
2023/08/14 01:21:36;;;;;;;6.00;2.35;;;;;;;15.00;100.00;100984.91;5000335;28;20453;-82
2023/08/14 01:24:14;;;;;;;5.73;2.40;;;;;;;14.99;100.00;100986.84;5017857;28;20459;-84
2023/08/14 01:26:49;;;;;;;7.65;2.55;;;;;;;14.83;100.00;100985.50;5003689;28;20432;-82
2023/08/14 01:29:23;;;;;;;5.82;2.30;;;;;;;14.84;100.00;100985.19;5005342;28;20908;-85
2023/08/14 01:31:56;;;;;;;7.20;2.40;;;;;;;14.95;100.00;100985.81;4999502;28;20421;-84
2023/08/14 01:34:29;;;;;;;8.20;2.42;;;;;;;14.97;100.00;100991.81;5005931;28;20413;-84
2023/08/14 01:37:06;;;;;;;5.85;2.40;;;;;;;15.02;100.00;100991.72;4998395;28;20418;-84
2023/08/14 01:39:49;;;;;;;7.47;2.55;;;;;;;15.01;100.00;100989.28;5000519;28;20430;-82
2023/08/14 01:42:28;;;;;;;6.13;2.65;;;;;;;15.04;100.00;100991.41;5001947;28;20448;-85
2023/08/14 01:45:06;;;;;;;7.83;2.70;;;;;;;15.00;100.00;100990.38;5007186;28;20423;-84
2023/08/14 01:47:41;;;;;;;5.25;2.70;;;;;;;14.91;100.00;100993.81;5000713;28;21002;-85
2023/08/14 01:50:15;;;;;;;8.18;2.63;;;;;;;14.77;100.00;100988.31;4999077;28;20447;-84
2023/08/14 01:52:43;;;;;;;7.90;2.70;;;;;;;14.73;100.00;100986.47;4999724;28;20438;-83
2023/08/14 01:55:17;;;;;;;5.85;2.30;;;;;;;14.72;100.00;100990.34;4998922;28;20430;-84
2023/08/14 01:57:46;;;;;;;8.15;2.58;;;;;;;14.73;100.00;100984.53;4997327;28;20422;-84
2023/08/14 02:00:16;;;;;;;7.70;2.55;;;;;;;14.77;100.00;100991.06;4997517;28;20425;-81
2023/08/14 02:02:49;;;;;;;8.20;2.72;;;;;;;14.69;100.00;100986.25;4994945;28;20424;-83
2023/08/14 02:05:22;;;;;;;8.13;2.70;;;;;;;14.65;100.00;100978.94;4996575;28;20459;-83
2023/08/14 02:07:55;;;;;;;7.03;2.60;;;;;;;14.68;100.00;100992.88;4997158;28;20587;-85
2023/08/14 02:10:24;;;;;;;7.70;2.65;;;;;;;14.83;100.00;100996.44;4994304;28;20495;-86
2023/08/14 02:12:59;;;;;;;7.07;2.47;;;;;;;14.71;100.00;100989.53;4993970;28;20442;-84
2023/08/14 02:15:27;;;;;;;6.20;2.70;;;;;;;14.70;100.00;100989.84;4991309;28;21065;-83
2023/08/14 02:17:55;;;;;;;5.88;2.70;;;;;;;14.74;100.00;100980.69;4998552;28;20438;-83
2023/08/14 02:20:28;;;;;;;6.40;2.92;;;;;;;14.75;100.00;100976.84;4995445;28;20425;-84
2023/08/14 02:22:57;;;;;;;6.82;2.80;;;;;;;14.76;100.00;100980.41;5001127;28;20779;-84
2023/08/14 02:25:30;;;;;;;7.07;2.53;;;;;;;14.77;100.00;100973.81;5000524;28;20421;-84
2023/08/14 02:28:05;;;;;;;8.50;2.70;;;;;;;14.81;100.00;100972.09;4996995;28;20435;-84
2023/08/14 02:30:41;;;;;;;7.82;2.80;;;;;;;14.82;100.00;100978.38;5005550;28;20426;-84
2023/08/14 02:33:14;;;;;;;7.60;2.90;;;;;;;14.76;100.00;100975.75;4999817;28;20426;-84
2023/08/14 02:35:47;;;;;;;6.47;2.60;;;;;;;14.79;100.00;100971.59;4999875;28;20421;-86
2023/08/14 02:38:16;;;;;;;5.38;2.65;;;;;;;14.77;100.00;100971.06;4999028;28;20418;-83
2023/08/14 02:40:44;;;;;;;7.18;2.92;;;;;;;14.81;100.00;100971.28;4997193;28;20889;-84
2023/08/14 02:43:19;;;;;;;4.95;2.70;;;;;;;14.82;100.00;100970.16;5002207;28;20457;-85
2023/08/14 02:45:53;;;;;;;5.47;2.60;;;;;;;14.82;100.00;100959.19;4998864;28;20433;-84
2023/08/14 02:48:22;;;;;;;6.63;2.88;;;;;;;14.80;100.00;100964.97;5028343;28;20822;-83
2023/08/14 02:50:56;;;;;;;5.82;2.60;;;;;;;14.73;100.00;100968.09;4993419;28;20424;-85
2023/08/14 02:53:29;;;;;;;8.50;2.88;;;;;;;14.60;100.00;100963.41;4997826;28;20457;-84
2023/08/14 02:56:02;;;;;;;6.47;2.92;;;;;;;14.60;100.00;100966.94;4993422;28;20791;-84
2023/08/14 02:58:37;;;;;;;7.93;3.10;;;;;;;14.61;100.00;100968.56;5001030;28;20430;-82
2023/08/14 03:01:10;;;;;;;8.02;3.05;;;;;;;14.62;100.00;100963.91;4997449;28;20428;-83
2023/08/14 03:03:43;;;;;;;6.68;2.80;;;;;;;14.61;100.00;100970.47;4997263;28;20429;-83
2023/08/14 03:06:18;;;;;;;7.38;3.08;;;;;;;14.53;100.00;100966.53;4997522;28;20434;-84
2023/08/14 03:08:46;;;;;;;6.10;2.95;;;;;;;14.57;100.00;100977.66;4994066;28;20944;-84
2023/08/14 03:11:14;;;;;;;6.28;3.08;;;;;;;14.56;100.00;100971.38;4996548;28;20791;-84
2023/08/14 03:13:44;;;;;;;7.10;2.95;;;;;;;14.54;100.00;100973.63;4994113;28;20459;-84
2023/08/14 03:16:17;;;;;;;8.00;3.20;;;;;;;14.57;100.00;100967.53;4995673;28;20424;-85
2023/08/14 03:18:50;;;;;;;7.45;3.08;;;;;;;14.53;100.00;100961.03;4993749;28;20432;-84
2023/08/14 03:21:19;;;;;;;9.32;3.22;;;;;;;14.50;100.00;100958.06;4991915;28;21082;-84
2023/08/14 03:23:48;;;;;;;7.15;3.15;;;;;;;14.58;100.00;100954.66;4996253;28;20444;-85
2023/08/14 03:26:21;;;;;;;10.93;3.20;;;;;;;14.64;100.00;100953.50;4993202;28;20429;-83
2023/08/14 03:28:55;;;;;;;8.68;3.15;;;;;;;14.65;100.00;100957.84;4993593;28;20637;-85
2023/08/14 03:31:31;;;;;;;11.45;3.67;;;;;;;14.66;100.00;100954.00;5025083;28;20428;-84
2023/08/14 03:34:05;;;;;;;9.15;3.40;;;;;;;14.57;100.00;100958.50;4991488;28;20425;-82
2023/08/14 03:36:38;;;;;;;9.18;3.50;;;;;;;14.61;100.00;100954.03;4994806;28;20429;-83
2023/08/14 03:39:13;;;;;;;8.95;3.33;;;;;;;14.55;100.00;100958.81;4995165;28;20429;-85
2023/08/14 03:41:46;;;;;;;8.93;3.60;;;;;;;14.57;100.00;100955.75;5012387;28;20444;-84
2023/08/14 03:44:21;;;;;;;10.00;3.25;;;;;;;14.60;100.00;100957.91;4995488;28;20438;-85
2023/08/14 03:46:54;;;;;;;7.80;3.22;;;;;;;14.62;100.00;100940.09;4993384;28;20431;-85
2023/08/14 03:49:27;;;;;;;8.60;3.27;;;;;;;14.68;100.00;100948.22;5011693;28;20425;-85
2023/08/14 03:52:02;;;;;;;9.50;3.75;;;;;;;14.67;100.00;100949.34;4998472;28;20462;-86
2023/08/14 03:54:35;;;;;;;8.07;3.50;;;;;;;14.65;100.00;100949.63;5026078;28;22388;-84
2023/08/14 03:57:09;;;;;;;9.75;3.50;;;;;;;14.66;100.00;100950.44;4994060;28;20448;-84
2023/08/14 03:59:44;;;;;;;9.13;3.45;;;;;;;14.62;100.00;100953.81;5003377;28;20434;-83
2023/08/14 04:02:17;;;;;;;8.38;3.40;;;;;;;14.59;100.00;100948.88;4991732;28;20442;-83
2023/08/14 04:04:45;;;;;;;7.05;3.20;;;;;;;14.54;100.00;100959.09;4996530;28;20437;-83
2023/08/14 04:07:19;;;;;;;5.63;3.00;;;;;;;14.53;100.00;100950.09;4997126;28;20430;-84
2023/08/14 04:09:47;;;;;;;8.73;3.33;;;;;;;14.55;100.00;100953.31;4998869;28;20434;-83
2023/08/14 04:12:20;;;;;;;7.47;3.70;;;;;;;14.57;100.00;100959.31;4994112;28;20762;-81
2023/08/14 04:14:54;;;;;;;8.32;3.97;;;;;;;14.58;100.00;100962.88;4990197;28;20441;-84
2023/08/14 04:17:23;;;;;;;7.40;3.80;;;;;;;14.61;100.00;100957.63;5019514;28;20908;-85
2023/08/14 04:19:56;;;;;;;7.82;3.58;;;;;;;14.65;100.00;100957.03;4996402;28;20438;-83
2023/08/14 04:22:29;;;;;;;11.65;3.78;;;;;;;14.70;100.00;100957.75;4992526;28;20432;-83
2023/08/14 04:25:02;;;;;;;9.00;3.53;;;;;;;14.74;100.00;100958.78;5026695;28;20433;-83
2023/08/14 04:27:36;;;;;;;12.27;3.60;;;;;;;14.82;100.00;100960.03;4997250;28;20419;-84
2023/08/14 04:30:07;;;;;;;8.60;3.50;;;;;;;14.79;100.00;100949.69;4998969;28;20440;-85
2023/08/14 04:32:36;;;;;;;8.30;3.80;;;;;;;14.86;100.00;100952.84;4999521;28;20422;-85
2023/08/14 04:35:10;;;;;;;11.40;3.90;;;;;;;14.87;100.00;100942.69;5011143;28;20426;-84
2023/08/14 04:37:44;;;;;;;9.60;3.53;;;;;;;14.90;100.00;100945.63;4996250;28;20430;-85
2023/08/14 04:40:12;;;;;;;6.68;3.53;;;;;;;14.88;100.00;100939.63;4994678;28;20866;-84
2023/08/14 04:42:45;;;;;;;11.83;3.53;;;;;;;14.91;100.00;100954.66;4997713;28;20960;-84
2023/08/14 04:45:20;;;;;;;7.65;3.88;;;;;;;14.97;100.00;100950.72;4998906;28;20800;-85
2023/08/14 04:47:53;;;;;;;8.27;3.50;;;;;;;15.01;100.00;100953.66;5012384;28;20438;-85
2023/08/14 04:50:26;;;;;;;7.88;3.47;;;;;;;15.05;100.00;100950.03;5025359;28;20444;-84
2023/08/14 04:52:56;;;;;;;5.87;3.30;;;;;;;15.11;100.00;100950.72;5012103;28;20438;-84
2023/08/14 04:55:24;;;;;;;7.65;3.67;;;;;;;15.14;100.00;100956.41;4993048;28;20436;-82
2023/08/14 04:57:54;;;;;;;8.20;3.40;;;;;;;15.18;100.00;100951.13;5022573;28;20446;-84
2023/08/14 05:00:24;;;;;;;8.60;3.60;;;;;;;15.24;100.00;100955.38;5001891;28;20885;-84
2023/08/14 05:02:59;;;;;;;7.30;3.50;;;;;;;15.26;100.00;100953.16;4990286;28;20434;-84
2023/08/14 05:05:34;;;;;;;7.10;3.35;;;;;;;15.33;100.00;100957.41;4996374;28;20447;-85
2023/08/14 05:08:02;;;;;;;9.40;3.50;;;;;;;15.39;100.00;100959.75;5021771;28;20438;-82
2023/08/14 05:10:35;;;;;;;8.40;3.55;;;;;;;16.03;100.00;100958.94;5020020;28;21223;-84
2023/08/14 05:13:04;;;;;;;8.68;3.58;;;;;;;17.66;100.00;100952.22;4992930;28;20437;-84
2023/08/14 05:15:39;;;;;;;9.75;3.20;;;;;;;18.99;100.00;100949.03;4998245;28;20440;-85
2023/08/14 05:18:13;;;;;;;8.25;3.00;;;;;;;19.59;100.00;100957.34;4992876;28;20442;-83
2023/08/14 05:20:43;;;;;;;6.85;3.08;;;;;;;20.60;100.00;100952.78;4994635;28;21060;-83
2023/08/14 05:23:11;;;;;;;6.35;2.55;;;;;;;21.02;100.00;100947.13;4996091;28;20774;-83
2023/08/14 05:25:45;;;;;;;7.63;2.90;;;;;;;20.73;100.00;100956.44;4993520;28;21109;-83
2023/08/14 05:28:14;;;;;;;6.43;2.92;;;;;;;21.26;100.00;100948.28;4994587;28;20433;-85
2023/08/14 05:30:48;;;;;;;7.20;2.70;;;;;;;21.02;100.00;100943.56;4994574;28;20904;-85
2023/08/14 05:33:21;;;;;;;7.38;2.88;;;;;;;20.16;100.00;100957.91;4996396;28;20434;-86
2023/08/14 05:35:56;;;;;;;8.82;3.33;;;;;;;19.61;100.00;100957.00;4993036;28;20443;-85
2023/08/14 05:38:30;;;;;;;5.60;2.70;;;;;;;19.40;100.00;100952.25;4993850;28;20453;-86
2023/08/14 05:41:03;;;;;;;6.95;3.00;;;;;;;18.93;100.00;100946.78;4995898;28;20805;-85
2023/08/14 05:43:36;;;;;;;7.30;2.88;;;;;;;18.59;100.00;100957.56;4994634;28;20530;-85
2023/08/14 05:46:10;;;;;;;7.30;2.90;;;;;;;18.29;100.00;100960.19;5001472;28;20436;-85
2023/08/14 05:48:43;;;;;;;6.85;3.05;;;;;;;18.17;100.00;100947.09;4997267;28;20764;-85
2023/08/14 05:51:12;;;;;;;7.82;3.40;;;;;;;18.11;100.00;100959.41;4997227;28;20448;-83
2023/08/14 05:53:45;;;;;;;7.05;3.30;;;;;;;18.08;100.00;100962.81;4996272;28;20426;-86
2023/08/14 05:56:18;;;;;;;7.22;3.20;;;;;;;18.09;100.00;100958.94;4994905;28;20539;-83
2023/08/14 05:58:46;;;;;;;8.97;3.37;;;;;;;18.02;100.00;100961.34;4995691;28;20422;-85
2023/08/14 06:01:16;;;;;;;7.38;3.10;;;;;;;17.99;100.00;100959.22;4997448;28;20436;-83
2023/08/14 06:03:45;;;;;;;6.07;3.00;;;;;;;18.04;100.00;100953.56;4991178;28;20440;-85
2023/08/14 06:06:35;;;;;;;6.75;3.08;;;;;;;18.04;100.00;100945.31;4994022;28;20445;-84
2023/08/14 06:09:08;;;;;;;8.50;3.50;;;;;;;18.01;100.00;100957.78;4995150;28;20468;-84
2023/08/14 06:11:41;;;;;;;9.15;3.45;;;;;;;17.93;100.00;100963.28;4994091;28;20921;-86
2023/08/14 06:14:14;;;;;;;7.93;3.03;;;;;;;18.06;100.00;100954.03;4994748;28;20449;-85
2023/08/14 06:16:44;;;;;;;8.02;3.72;;;;;;;18.26;100.00;100951.78;4994413;28;20433;-85
2023/08/14 06:19:17;;;;;;;8.02;3.00;;;;;;;18.29;100.00;100964.91;4994585;28;20902;-85
2023/08/14 06:21:46;;;;;;;6.93;2.80;;;;;;;18.43;100.00;100960.03;5029899;28;20434;-86
2023/08/14 06:24:21;;;;;;;6.43;2.95;;;;;;;18.59;100.00;100976.03;5015584;28;20428;-85
2023/08/14 06:26:54;;;;;;;8.52;3.22;;;;;;;18.61;100.00;100955.28;4995038;28;20453;-86
2023/08/14 06:29:22;;;;;;;5.45;2.92;;;;;;;18.45;100.00;100959.69;5012872;28;20441;-85
2023/08/14 06:31:52;;;;;;;7.28;3.38;;;;;;;18.42;100.00;100971.38;5001156;28;20427;-84
2023/08/14 06:34:25;;;;;;;9.05;3.38;;;;;;;18.46;100.00;100975.09;4994198;28;20789;-83
2023/08/14 06:37:26;;;;;;;6.25;3.22;;;;;;;18.60;100.00;100967.47;5012139;28;20433;-85
2023/08/14 06:39:59;;;;;;;8.95;3.53;;;;;;;18.75;100.00;100973.59;5003362;28;20413;-82
2023/08/14 06:42:27;;;;;;;8.80;3.05;;;;;;;18.83;100.00;100967.25;5000008;28;20444;-83
2023/08/14 06:45:03;;;;;;;7.63;3.30;;;;;;;18.90;100.00;100970.31;5006788;28;20453;-85
2023/08/14 06:47:44;;;;;;;6.23;3.30;;;;;;;18.81;100.00;100975.00;4996096;28;20927;-84
2023/08/14 06:50:17;;;;;;;9.98;3.53;;;;;;;18.97;100.00;100972.56;4950506;28;20432;-83
2023/08/14 06:52:47;;;;;;;7.72;3.30;;;;;;;18.97;100.00;100969.81;4981445;28;20440;-85
2023/08/14 06:55:21;;;;;;;8.13;3.50;;;;;;;18.89;100.00;100978.94;4978736;28;20424;-84
2023/08/14 06:57:54;;;;;;;8.27;3.30;;;;;;;18.98;100.00;100972.25;4989313;28;20443;-81
2023/08/14 07:00:22;;;;;;;7.55;3.25;;;;;;;18.94;100.00;100985.06;4973643;28;20428;-82
2023/08/14 07:02:57;;;;;;;6.80;3.30;;;;;;;19.10;100.00;100979.00;4966618;28;20433;-83
2023/08/14 07:05:25;;;;;;;9.00;3.65;;;;;;;19.30;100.00;100986.56;4973354;28;20436;-81
2023/08/14 07:07:58;;;;;;;7.00;3.10;;;;;;;19.36;100.00;100992.69;4973489;28;20448;-82
2023/08/14 07:10:56;;;;;;;7.07;3.40;;;;;;;19.36;100.00;100992.69;4979609;28;20442;-84
2023/08/14 07:13:30;;;;;;;7.18;3.13;;;;;;;19.49;100.00;100985.34;4973938;28;20492;-82
2023/08/14 07:16:01;;;;;;;8.38;3.30;;;;;;;19.48;100.00;100979.00;4973539;28;20447;-82
2023/08/14 07:18:31;;;;;;;8.30;3.40;;;;;;;19.61;100.00;100985.44;4977973;28;20868;-82
2023/08/14 07:21:04;;;;;;;7.10;3.30;;;;;;;19.76;100.00;100973.00;5015929;28;20444;-83
2023/08/14 07:23:38;;;;;;;7.50;3.33;;;;;;;19.76;100.00;100981.28;4980614;28;20443;-83
2023/08/14 07:26:12;;;;;;;9.27;3.30;;;;;;;19.67;100.00;100973.03;4981717;28;20490;-82
2023/08/14 07:28:45;;;;;;;9.15;3.05;;;;;;;19.92;100.00;100983.47;5011265;28;20436;-83
2023/08/14 07:31:18;;;;;;;7.27;3.17;;;;;;;20.10;100.00;100986.91;4972305;28;20435;-82
2023/08/14 07:33:53;;;;;;;7.72;3.30;;;;;;;20.05;100.00;100985.97;4982339;28;20436;-82
2023/08/14 07:36:21;;;;;;;6.30;3.20;;;;;;;20.12;100.00;100985.44;4975286;28;20435;-82
2023/08/14 07:38:54;;;;;;;8.70;3.07;;;;;;;20.10;100.00;100987.72;4989750;28;20428;-84
2023/08/14 07:41:37;;;;;;;10.47;3.60;;;;;;;20.20;100.00;100986.50;4978779;28;20431;-83
2023/08/14 07:44:11;;;;;;;7.25;3.45;;;;;;;20.33;100.00;100973.56;4976479;28;20431;-83
2023/08/14 07:46:39;;;;;;;8.40;3.15;;;;;;;20.44;100.00;100966.47;4977406;28;20916;-83
2023/08/14 07:49:13;;;;;;;8.25;3.63;;;;;;;20.32;100.00;100971.94;4975560;28;20514;-82
2023/08/14 07:51:46;;;;;;;7.18;3.35;;;;;;;20.36;100.00;100972.88;4999556;28;20429;-82
2023/08/14 07:54:20;;;;;;;6.68;3.00;;;;;;;20.49;100.00;100977.28;4968502;28;23225;-82
2023/08/14 07:56:59;;;;;;;7.30;3.40;;;;;;;20.60;100.00;100974.91;4974950;28;20467;-82
2023/08/14 07:59:54;;;;;;;9.30;3.38;;;;;;;20.56;100.00;100977.56;4984657;28;20501;-83
2023/08/14 08:02:28;;;;;;;8.05;3.13;;;;;;;20.63;100.00;100976.19;4979458;28;20436;-84
2023/08/14 08:05:04;;;;;;;7.10;3.13;;;;;;;20.77;100.00;100978.66;4980595;28;20432;-82
2023/08/14 08:07:32;;;;;;;6.47;3.22;;;;;;;20.88;100.00;100972.38;4983425;28;20425;-82
2023/08/14 08:10:01;;;;;;;9.87;3.30;;;;;;;20.93;100.00;100974.09;4983246;28;20436;-84
2023/08/14 08:12:34;;;;;;;8.25;3.17;;;;;;;20.90;100.00;100980.31;4977139;28;20455;-82
2023/08/14 08:18:24;;;;;;;8.57;3.40;;;;;;;20.93;100.00;100957.50;4983547;28;20428;-82
2023/08/14 08:20:59;;;;;;;8.50;4.35;;;;;;;21.00;100.00;100962.47;4981240;28;21141;-82
2023/08/14 08:23:32;;;;;;;7.22;3.30;;;;;;;21.08;100.00;100964.31;4988497;28;20431;-83
2023/08/14 08:26:00;;;;;;;8.57;3.40;;;;;;;21.24;100.00;100954.19;4986079;28;20437;-83
2023/08/14 08:28:33;;;;;;;8.35;3.25;;;;;;;21.19;100.00;100953.59;4983676;28;20429;-83
2023/08/14 08:31:06;;;;;;;7.40;3.30;;;;;;;21.30;100.00;100942.88;4978682;28;20443;-82
2023/08/14 08:33:40;;;;;;;6.18;3.08;;;;;;;21.50;100.00;100947.47;4975961;28;21139;-82
2023/08/14 08:36:17;;;;;;;8.52;3.00;;;;;;;21.53;100.00;100945.97;4977513;28;20440;-81
2023/08/14 08:38:45;;;;;;;6.50;3.00;;;;;;;21.49;100.00;100943.09;4978979;28;21747;-83
2023/08/14 08:41:22;;;;;;;8.82;3.15;;;;;;;21.65;100.00;100948.72;4976018;28;20440;-81
2023/08/14 08:44:03;;;;;;;9.77;4.28;;;;;;;21.78;100.00;100960.63;4983573;28;20438;-83
2023/08/14 08:46:35;;;;;;;7.85;3.20;;;;;;;21.91;100.00;100961.38;4974957;28;20438;-82
2023/08/14 08:49:14;;;;;;;7.78;3.40;;;;;;;21.98;100.00;100958.03;4978776;28;20916;-83
2023/08/14 08:51:51;;;;;;;6.35;3.08;;;;;;;21.81;100.00;100956.34;4979933;28;20423;-84
2023/08/14 08:54:26;;;;;;;8.03;3.30;;;;;;;21.90;100.00;100955.03;4970154;28;20453;-82
2023/08/14 08:56:56;;;;;;;6.38;3.13;;;;;;;22.00;100.00;100958.47;4965103;28;20438;-83
2023/08/14 08:59:30;;;;;;;6.97;3.08;;;;;;;22.05;100.00;100953.50;4967301;28;20425;-82
2023/08/14 09:02:03;;;;;;;8.45;3.25;;;;;;;22.08;100.00;100957.50;4973413;28;21785;-84
2023/08/14 09:04:31;;;;;;;6.37;2.97;;;;;;;22.06;100.00;100962.63;4961671;28;20426;-81
2023/08/14 09:07:06;;;;;;;5.55;2.85;;;;;;;21.95;100.00;100942.09;4961504;28;20442;-81
2023/08/14 09:09:40;;;;;;;7.57;2.78;;;;;;;21.89;100.00;100945.13;4967811;28;20433;-81
2023/08/14 09:12:13;;;;;;;8.35;3.08;;;;;;;21.88;100.00;100940.72;4972242;28;20449;-83
2023/08/14 09:15:02;;;;;;;8.23;3.20;;;;;;;21.78;100.00;100940.41;4960080;28;20442;-82
2023/08/14 09:17:41;;;;;;;10.00;3.00;;;;;;;21.76;100.00;100937.97;4965074;28;20426;-83
2023/08/14 09:20:15;;;;;;;7.40;3.15;;;;;;;21.89;100.00;100945.13;4970966;28;20422;-83
2023/08/14 09:22:49;;;;;;;8.23;3.90;;;;;;;21.92;100.00;100944.41;4970205;28;20429;-84
2023/08/14 09:25:22;;;;;;;9.10;3.08;;;;;;;21.79;100.00;100942.81;4960709;28;20449;-83
2023/08/14 09:27:51;;;;;;;8.98;2.65;;;;;;;22.00;100.00;100931.56;4963323;28;20434;-83
2023/08/14 09:30:25;;;;;;;6.57;2.63;;;;;;;22.30;100.00;100939.50;4962228;28;20438;-82
2023/08/14 09:32:59;;;;;;;7.40;2.88;;;;;;;22.58;100.00;100933.19;4964921;28;20444;-83
2023/08/14 09:35:32;;;;;;;8.82;3.10;;;;;;;22.78;100.00;100936.06;4964012;28;20446;-82
2023/08/14 09:38:07;;;;;;;9.60;2.95;;;;;;;22.59;100.00;100937.56;4964983;28;20434;-83
2023/08/14 09:40:40;;;;;;;7.95;3.58;;;;;;;22.55;100.00;100939.44;4967368;28;20430;-88
2023/08/14 09:43:14;;;;;;;8.35;3.10;;;;;;;22.59;100.00;100937.56;4969779;28;20418;-83
2023/08/14 09:45:47;;;;;;;7.53;2.60;;;;;;;22.49;100.00;100946.41;4962835;28;20458;-84
2023/08/14 09:48:20;;;;;;;7.68;2.80;;;;;;;22.43;100.00;100943.09;4966268;28;20433;-83
2023/08/14 09:50:54;;;;;;;7.50;2.90;;;;;;;22.28;100.00;100943.84;4941222;28;20446;-83
2023/08/14 09:53:29;;;;;;;8.10;2.95;;;;;;;22.30;100.00;100939.50;4970970;28;20446;-84
2023/08/14 09:56:02;;;;;;;7.67;3.10;;;;;;;22.24;100.00;100946.50;4960894;28;20440;-83
2023/08/14 09:58:35;;;;;;;7.57;2.92;;;;;;;22.23;100.00;100950.41;4964753;28;20458;-83
2023/08/14 10:01:11;;;;;;;7.18;2.80;;;;;;;22.22;100.00;100955.16;4976893;28;20443;-83
2023/08/14 10:03:49;;;;;;;7.32;2.83;;;;;;;22.21;100.00;100939.69;4958678;28;20447;-82
2023/08/14 10:06:24;;;;;;;6.30;2.80;;;;;;;22.36;100.00;100945.66;4963801;28;22419;-83
2023/08/14 10:08:59;;;;;;;7.25;2.85;;;;;;;22.51;100.00;100944.91;4962308;28;20772;-82
2023/08/14 10:11:36;;;;;;;6.15;3.13;;;;;;;22.58;100.00;100933.19;4967473;28;20458;-83
2023/08/14 10:14:13;;;;;;;9.05;3.15;;;;;;;22.72;100.00;100936.31;4962792;28;20433;-82
2023/08/14 10:16:50;;;;;;;8.15;2.88;;;;;;;22.94;100.00;100925.78;4964456;28;20442;-81
2023/08/14 10:19:24;;;;;;;7.93;2.80;;;;;;;23.02;100.00;100927.56;4964687;28;20434;-82
2023/08/14 10:21:58;;;;;;;8.43;2.73;;;;;;;23.08;100.00;100922.53;4958914;28;20442;-83
2023/08/14 10:24:38;;;;;;;8.30;3.35;;;;;;;22.94;100.00;100917.44;4960710;28;20445;-82
2023/08/14 10:27:07;;;;;;;6.60;3.00;;;;;;;22.92;100.00;100912.25;4967057;28;20435;-83
2023/08/14 10:29:36;;;;;;;7.07;2.88;;;;;;;22.98;100.00;100909.19;4967370;28;20437;-83
2023/08/14 10:32:10;;;;;;;8.50;3.05;;;;;;;23.00;100.00;100923.53;4969884;28;20438;-83
2023/08/14 10:34:39;;;;;;;6.77;2.90;;;;;;;22.92;100.00;100915.03;4962592;28;20439;-83
2023/08/14 10:37:07;;;;;;;5.82;2.55;;;;;;;22.97;100.00;100915.94;4961881;28;20449;-82
2023/08/14 10:39:37;;;;;;;8.63;2.83;;;;;;;22.92;100.00;100912.25;4958536;28;20442;-83
2023/08/14 10:42:13;;;;;;;6.10;2.47;;;;;;;22.91;100.00;100913.41;4965536;28;20432;-83
2023/08/14 10:44:44;;;;;;;7.85;2.97;;;;;;;23.38;100.00;100908.19;4960193;28;20437;-83
2023/08/14 10:47:13;;;;;;;9.18;2.60;;;;;;;23.46;100.00;100901.63;4960849;28;20453;-81
2023/08/14 10:49:44;;;;;;;7.13;2.88;;;;;;;23.12;100.00;100900.41;4936917;28;20847;-83
2023/08/14 10:52:20;;;;;;;13.02;6.07;;;;;;;22.99;100.00;100900.50;4959590;28;20622;-83
2023/08/14 10:54:55;;;;;;;8.88;3.45;;;;;;;22.85;100.00;100903.75;4962220;28;20457;-83
2023/08/14 10:57:29;;;;;;;7.05;2.95;;;;;;;22.64;100.00;100915.09;4967334;28;21246;-84
2023/08/14 11:00:02;;;;;;;7.00;2.90;;;;;;;22.70;100.00;100910.91;4963576;28;20449;-84
2023/08/14 11:02:41;;;;;;;7.47;2.60;;;;;;;23.15;100.00;100905.28;4960937;28;20430;-83
2023/08/14 11:05:16;;;;;;;5.20;2.60;;;;;;;23.37;100.00;100898.25;4961142;28;20433;-83
2023/08/14 11:08:00;;;;;;;6.25;2.95;;;;;;;23.55;100.00;100899.44;4967707;28;20434;-82
2023/08/14 11:10:36;;;;;;;7.85;2.78;;;;;;;23.49;100.00;100908.41;4960663;28;20541;-82
2023/08/14 11:13:10;;;;;;;5.23;2.60;;;;;;;23.72;100.00;100897.41;4960786;28;20449;-85
2023/08/14 11:15:44;;;;;;;11.50;3.10;;;;;;;23.75;100.00;100899.47;4968433;28;20505;-83
2023/08/14 11:18:12;;;;;;;5.88;2.70;;;;;;;23.94;100.00;100893.94;4974835;28;20435;-82
2023/08/14 11:20:45;;;;;;;5.90;2.58;;;;;;;24.26;100.00;100891.00;4961559;28;20453;-81
2023/08/14 11:23:19;;;;;;;8.50;3.17;;;;;;;24.20;100.00;100897.22;4961047;28;20807;-82
2023/08/14 11:25:48;;;;;;;7.28;2.95;;;;;;;24.11;100.00;100895.47;4957424;28;20442;-83
2023/08/14 11:28:21;;;;;;;8.27;2.90;;;;;;;23.90;100.00;100886.69;4951458;28;20520;-82
2023/08/14 11:30:49;;;;;;;6.47;2.80;;;;;;;24.33;100.00;100892.28;4958043;28;20438;-83
2023/08/14 11:33:21;;;;;;;7.72;3.00;;;;;;;24.64;100.00;100882.94;4957434;28;20434;-84
2023/08/14 11:35:49;;;;;;;9.30;4.30;;;;;;;24.63;100.00;100891.66;4962660;28;20458;-82
2023/08/14 11:38:25;;;;;;;9.27;3.10;;;;;;;24.47;100.00;100894.53;4964758;28;20429;-81
2023/08/14 11:40:54;;;;;;;7.70;2.90;;;;;;;23.74;100.00;100907.00;4978290;28;21089;-84
2023/08/14 11:43:28;;;;;;;7.07;2.97;;;;;;;23.72;100.00;100905.75;4959292;28;20446;-81
2023/08/14 11:46:03;;;;;;;6.95;2.88;;;;;;;23.65;100.00;100905.59;4955402;28;20438;-81
2023/08/14 11:48:33;;;;;;;7.13;2.80;;;;;;;23.92;100.00;100912.97;4966962;28;20453;-83